SCEL/SCL METAR and TAF weather

Enter ICAO airport designator
Station Type Date Time Source
SCEL METAR 2019/10/23 03:00 UTC NOAA

SCEL 230300Z 16005KT CAVOK 18/M03 Q1016 NOSIG


Station Type Date Time Source
SCEL Decoded METAR 2019/10/23 03:00 UTC NOAA

Pudahuel, Chile (SCEL) 33-23S 070-47W 476M
Oct 22, 2019 - 11:00 PM EDT / 2019.10.23 0300 UTC
Wind: from the SSE (160 degrees) at 6 MPH (5 KT):0
Visibility: greater than 7 mile(s):0
Temperature: 64 F (18 C)
Dew Point: 26 F (-3 C)
Relative Humidity: 23%
Pressure (altimeter): 30.00 in. Hg (1016 hPa)
ob: SCEL 230300Z 16005KT CAVOK 18/M03 Q1016 NOSIG
cycle: 3

Station Type Date Time Source
SCEL TAF 2019/10/23 00:00 UTC NOAA

TAF SCEL 222200Z 2300/2324 16004KT CAVOK TX29/2319Z TN09/2311Z
TEMPO 2306/2312 VRB02KT 7000 SCT180 BKN200
BECMG 2315/2317 18005KT
BECMG 2318/2320 20012KT

Example: see airport list